Latest Weather Observations for Tidbinbilla

IDN60901

Issued at 6:31 pm EDT Tuesday 10 December 2019 (issued every 10 minutes, with the page automatically refreshed every 10 minutes)

About weather observations | Map of Canberra area stations | Latest observations for Canberra area | Other Formats
Station Details ID: 250069 Name: TIDBINBILLA (PCS) Lat: -35.46 Lon: 148.94 Height: 883.0 m

Portable automatic weather stations (PAWS) are operated by other organisations, such as Fire and Emergency Services, and are included here by agreement. Portable stations may be deployed to a location for a short period and their location may be subject to change without notice. Wind observations from these stations are provided from heights of either three (3) or ten (10) metres above ground level (AGL).

Data from the previous 72 hours. | See also: Recent months for locations in Aust Capital Territory
Date/Time
EDT
Temp
°C
App
Temp
°C
Dew
Point
°C
Rel
Hum
%
Delta-T
°C
Wind Press
QNH
hPa
Press
MSL
hPa
Rain since
9am
mm
Dir  Spd
km/h
Gust
km/h
Spd
kts
Gust
kts
10/06:20pm 33.1 28.6 4.3 16 15.7 W 17 22 9 12 1015.3 - 0.0
10/06:10pm 32.7 27.7 3.8 16 15.6 WSW 19 30 10 16 1015.3 - 0.0
10/06:00pm 33.4 27.1 3.7 15 16.0 SW 26 33 14 18 1015.0 - 0.0
10/05:50pm 33.8 28.7 2.8 14 16.5 WSW 19 33 10 18 1014.9 - 0.0
10/05:40pm 31.9 26.3 3.3 16 15.2 SW 22 30 12 16 1015.0 - 0.0
10/05:30pm 32.3 27.0 3.1 15 15.5 WSW 20 26 11 14 1014.9 - 0.0
10/05:20pm 32.8 25.9 2.4 14 16.0 SW 28 37 15 20 1014.8 - 0.0
10/05:10pm 33.6 28.7 2.3 14 16.6 WSW 17 26 9 14 1014.7 - 0.0
10/05:00pm 33.3 28.9 2.8 14 16.2 W 15 28 8 15 1014.8 - 0.0
10/04:50pm 32.7 27.8 2.1 14 16.0 WSW 17 24 9 13 1015.0 - 0.0
10/04:40pm 33.6 28.1 1.7 13 16.7 W 20 32 11 17 1015.0 - 0.0
10/04:30pm 34.3 30.5 1.6 12 17.2 WSW 11 19 6 10 1015.0 - 0.0
10/04:20pm 33.7 28.3 1.5 13 16.8 WNW 19 28 10 15 1015.0 - 0.0
10/04:10pm 33.6 28.0 1.2 13 16.8 WSW 20 32 11 17 1015.3 - 0.0
10/04:00pm 33.2 27.3 1.6 13 16.5 WSW 22 35 12 19 1015.2 - 0.0
10/03:50pm 34.2 27.5 1.2 12 17.2 SW 26 35 14 19 1015.1 - 0.0
10/03:40pm 35.6 29.2 0.7 11 18.2 SW 24 33 13 18 1014.8 - 0.0
10/03:30pm 35.8 30.6 0.4 10 18.4 W 17 22 9 12 1015.3 - 0.0
10/03:20pm 34.9 28.0 0.0 11 17.9 SW 26 39 14 21 1015.4 - 0.0
10/03:10pm 35.5 27.2 -0.6 10 18.4 SW 33 41 18 22 1015.4 - 0.0
10/03:00pm 35.6 29.6 -1.2 9 18.6 WSW 20 32 11 17 1015.2 - 0.0
10/02:50pm 35.2 28.5 -0.9 10 18.3 W 24 33 13 18 1015.5 - 0.0
10/02:40pm 35.1 29.2 -0.7 10 18.2 WSW 20 33 11 18 1015.6 - 0.0
10/02:30pm 35.2 29.0 -0.1 10 18.1 WSW 22 33 12 18 1015.8 - 0.0
10/02:20pm 35.6 29.0 -0.1 10 18.4 W 24 37 13 20 1015.7 - 0.0
10/02:10pm 35.5 28.4 -1.2 9 18.6 WSW 26 28 14 15 1015.9 - 0.0
10/02:00pm 35.9 30.4 -1.9 9 19.0 W 17 33 9 18 1015.8 - 0.0
10/01:50pm 35.3 29.2 -2.0 9 18.6 W 20 32 11 17 1015.8 - 0.0
10/01:40pm 35.5 29.8 -3.5 8 19.0 WSW 17 28 9 15 1015.8 - 0.0
10/01:30pm 34.5 25.9 -3.8 8 18.5 SSW 32 44 17 24 1016.2 - 0.0
10/01:10pm 35.6 28.5 -4.1 8 19.2 W 24 41 13 22 1016.1 - 0.0
10/01:00pm 36.4 30.0 -4.5 7 19.7 NW 20 30 11 16 1016.5 - 0.0
10/12:50pm 34.9 27.8 -4.8 7 18.9 WSW 24 37 13 20 1016.6 - 0.0
10/12:40pm 34.8 25.9 -5.3 7 18.9 SW 33 44 18 24 1016.1 - 0.0
10/12:30pm 35.2 29.5 -3.9 8 18.9 WSW 17 22 9 12 1016.7 - 0.0
10/12:20pm 34.5 28.9 -3.1 9 18.3 W 17 26 9 14 1016.9 - 0.0
10/12:10pm 34.2 26.7 -4.8 8 18.5 W 26 39 14 21 1016.8 - 0.0
10/12:00pm 34.7 29.9 -2.8 9 18.4 WSW 13 19 7 10 1017.0 - 0.0
10/11:50am 35.3 29.2 -3.5 8 18.9 WNW 19 28 10 15 1017.0 - 0.0
10/11:40am 34.6 27.8 -1.6 10 18.1 NW 24 32 13 17 1017.0 - 0.0
10/11:30am 34.4 29.0 -1.3 10 17.9 W 17 26 9 14 1017.1 - 0.0
10/11:20am 34.2 28.9 -0.4 11 17.6 WNW 17 24 9 13 1017.4 - 0.0
10/11:10am 33.6 28.3 -0.8 11 17.3 WNW 17 26 9 14 1017.5 - 0.0
10/11:00am 33.3 28.0 -0.9 11 17.1 W 17 28 9 15 1017.5 - 0.0
10/10:50am 33.0 27.6 -1.6 11 17.1 WNW 17 24 9 13 1017.5 - 0.0
10/10:40am 33.5 28.9 -1.2 11 17.3 NW 13 28 7 15 1017.4 - 0.0
10/10:30am 33.1 28.3 0.3 12 16.7 WNW 15 26 8 14 1017.7 - 0.0
10/10:20am 32.9 29.7 0.6 13 16.5 WSW 7 13 4 7 1017.7 - 0.0
10/10:10am 32.2 29.1 1.2 14 16.0 WNW 7 13 4 7 1017.9 - 0.0
10/10:00am 32.1 28.2 0.9 13 16.0 WNW 11 20 6 11 1018.0 - 0.0
10/09:50am 32.6 29.1 1.3 13 16.2 NNW 9 17 5 9 1018.1 - 0.0
10/09:40am 31.4 27.4 0.8 14 15.6 NNW 11 20 6 11 1018.2 - 0.0
10/09:30am 30.2 27.2 1.8 16 14.6 W 7 11 4 6 1018.2 - 0.0
10/09:20am 30.1 26.3 4.1 19 13.9 W 13 19 7 10 1018.3 - 0.0
10/09:10am 30.1 27.7 4.1 19 13.9 NW 6 11 3 6 1018.3 - 0.0
10/09:00am 29.5 27.1 5.2 21 13.2 W 7 9 4 5 1018.3 - 0.0
10/08:50am 28.8 26.0 2.2 18 13.7 NNW 6 7 3 4 1018.3 - 0.0
10/08:40am 28.8 26.0 5.3 22 12.7 NW 9 11 5 6 1018.4 - 0.0
10/08:30am 28.0 25.4 4.0 21 12.6 NNW 7 11 4 6 1018.3 - 0.0
10/08:20am 28.2 25.5 5.8 24 12.2 NW 9 13 5 7 1018.3 - 0.0
10/08:10am 27.4 23.6 1.8 19 12.9 WNW 11 15 6 8 1018.3 - 0.0
10/08:00am 27.1 24.8 2.5 20 12.6 W 4 13 2 7 1018.2 - 0.0
10/07:50am 26.2 23.9 2.9 22 11.9 SW 4 7 2 4 1018.2 - 0.0
10/07:40am 25.2 23.3 2.8 23 11.4 SSW 2 4 1 2 1018.2 - 0.0
10/07:30am 23.9 21.9 2.2 24 10.8 NNE 2 2 1 1 1018.2 - 0.0
10/07:20am 23.4 21.5 2.8 26 10.3 E 2 6 1 3 1018.1 - 0.0
10/07:10am 23.5 21.6 2.8 26 10.4 N 2 4 1 2 1018.0 - 0.0
10/07:00am 23.9 22.4 2.8 25 10.6 CALM 0 2 0 1 1017.8 - 0.0
10/06:50am 23.4 21.8 2.6 25 10.4 CALM 0 2 0 1 1017.7 - 0.0
10/06:40am 22.9 21.3 2.2 25 10.2 CALM 0 4 0 2 1017.8 - 0.0
10/06:30am 22.4 20.7 1.7 25 10.1 CALM 0 2 0 1 1017.7 - 0.0
10/06:20am 21.8 19.8 2.1 27 9.6 NNW 2 4 1 2 1017.6 - 0.0
10/06:10am 21.9 20.2 1.9 26 9.8 CALM 0 0 0 0 1017.7 - 0.0
10/06:00am 21.9 20.3 2.2 27 9.7 CALM 0 2 0 1 1017.7 - 0.0
10/05:50am 21.7 20.0 2.1 27 9.6 CALM 0 2 0 1 1017.7 - 0.0
10/05:40am 21.8 19.4 2.1 27 9.6 SSW 4 6 2 3 1017.7 - 0.0
10/05:30am 21.5 19.1 2.2 28 9.4 S 4 6 2 3 1017.7 - 0.0
10/05:20am 21.4 19.0 2.4 28 9.3 SSW 4 4 2 2 1017.7 - 0.0
10/05:10am 21.4 19.8 2.6 29 9.3 CALM 0 2 0 1 1017.6 - 0.0
10/05:00am 21.6 20.0 2.7 28 9.3 CALM 0 0 0 0 1017.6 - 0.0
10/04:50am 22.2 20.3 3.0 28 9.6 W 2 4 1 2 1017.5 - 0.0
10/04:40am 23.0 21.1 2.6 26 10.2 ENE 2 4 1 2 1017.4 - 0.0
10/04:30am 23.3 21.7 2.2 25 10.5 CALM 0 2 0 1 1017.4 - 0.0
10/04:20am 23.2 21.1 2.0 25 10.5 NE 2 4 1 2 1017.4 - 0.0
10/04:10am 22.7 20.3 2.3 26 10.1 NNE 4 4 2 2 1017.4 - 0.0
10/04:00am 22.7 20.8 2.6 26 10.0 N 2 6 1 3 1017.4 - 0.0
10/03:50am 22.8 20.9 2.6 26 10.0 SSW 2 4 1 2 1017.4 - 0.0
10/03:40am 23.0 21.0 2.5 26 10.2 SSW 2 6 1 3 1017.5 - 0.0
10/03:30am 23.0 20.7 2.5 26 10.2 SSW 4 7 2 4 1017.6 - 0.0
10/03:20am 23.3 20.6 2.7 26 10.3 SSW 6 6 3 3 1017.7 - 0.0
10/03:10am 23.1 20.4 2.7 26 10.2 SSW 6 7 3 4 1017.8 - 0.0
10/03:00am 23.1 20.4 2.6 26 10.2 S 6 7 3 4 1017.9 - 0.0
10/02:50am 22.9 20.2 2.8 26 10.0 S 6 7 3 4 1018.0 - 0.0
10/02:40am 22.9 20.2 2.8 26 10.0 S 6 6 3 3 1018.1 - 0.0
10/02:30am 22.8 20.1 2.7 26 10.0 S 6 6 3 3 1018.2 - 0.0
10/02:20am 22.7 21.2 3.0 27 9.9 CALM 0 4 0 2 1018.3 - 0.0
10/02:10am 22.9 21.0 3.1 27 9.9 SW 2 4 1 2 1018.4 - 0.0
10/02:00am 23.1 21.2 3.1 27 10.1 WNW 2 4 1 2 1018.5 - 0.0
10/01:50am 23.3 21.4 2.9 26 10.2 E 2 4 1 2 1018.6 - 0.0
10/01:40am 23.1 20.9 3.1 27 10.1 NNE 4 6 2 3 1018.6 - 0.0
10/01:30am 24.0 21.8 3.6 26 10.4 SSW 4 7 2 4 1018.7 - 0.0
10/01:20am 24.2 21.4 2.9 25 10.8 S 7 9 4 5 1018.7 - 0.0
10/01:10am 24.0 21.2 3.0 25 10.6 S 7 9 4 5 1018.8 - 0.0
10/01:00am 24.0 21.7 3.0 25 10.6 S 4 7 2 4 1018.9 - 0.0
10/12:50am 24.0 21.4 3.2 25 10.5 S 6 9 3 5 1019.0 - 0.0
10/12:40am 24.0 20.5 3.3 26 10.5 S 11 11 6 6 1019.1 - 0.0
10/12:30am 24.3 20.8 3.4 25 10.7 S 11 13 6 7 1019.2 - 0.0
10/12:20am 24.3 20.7 3.2 25 10.7 S 11 13 6 7 1019.3 - 0.0
10/12:00am 24.4 20.9 3.5 25 10.7 S 11 13 6 7 1019.5 - 0.0
 
Date/Time
EDT
Temp
°C
App
Temp
°C
Dew
Point
°C
Rel
Hum
%
Delta-T
°C
Wind Press
QNH
hPa
Press
MSL
hPa
Rain since
9am
mm
Dir  Spd
km/h
Gust
km/h
Spd
kts
Gust
kts
09/11:20pm 24.8 20.5 3.2 24 11.0 S 15 17 8 9 1019.7 - 0.0
09/11:10pm 24.9 21.3 2.8 23 11.2 S 11 15 6 8 1019.8 - 0.0
09/11:00pm 24.8 21.2 3.0 24 11.1 S 11 15 6 8 1019.9 - 0.0
09/10:50pm 25.1 20.8 3.1 24 11.2 S 15 15 8 8 1019.9 - 0.0
09/10:40pm 24.9 20.6 3.1 24 11.1 S 15 15 8 8 1019.9 - 0.0
09/10:30pm 24.8 20.5 3.2 24 11.0 S 15 17 8 9 1019.9 - 0.0
09/10:20pm 24.6 21.1 3.4 25 10.8 SSW 11 15 6 8 1019.9 - 0.0
09/10:10pm 25.0 21.5 3.5 24 11.0 S 11 13 6 7 1019.9 - 0.0
09/10:00pm 25.1 21.2 3.4 24 11.1 S 13 13 7 7 1019.8 - 0.0
09/09:30pm 25.3 21.9 4.0 25 11.0 S 11 13 6 7 1019.9 - 0.0
09/09:20pm 25.4 22.0 3.9 25 11.1 SSW 11 15 6 8 1019.8 - 0.0
09/09:10pm 25.0 22.0 4.2 26 10.8 SSW 9 9 5 5 1019.8 - 0.0
09/09:00pm 25.0 21.6 4.2 26 10.8 SSW 11 13 6 7 1019.8 - 0.0
09/08:50pm 25.0 21.6 4.2 26 10.8 SSW 11 13 6 7 1019.7 - 0.0
09/08:40pm 25.3 22.0 4.5 26 10.9 SSW 11 15 6 8 1019.7 - 0.0
09/08:30pm 25.7 21.6 4.3 25 11.2 SW 15 19 8 10 1019.7 - 0.0
09/08:10pm 26.2 22.5 4.3 24 11.5 SW 13 15 7 8 1019.6 - 0.0
09/07:50pm 27.2 23.1 4.1 22 12.1 SW 15 19 8 10 1019.5 - 0.0
09/07:40pm 27.7 24.0 4.4 22 12.3 SW 13 15 7 8 1019.5 - 0.0
09/07:30pm 28.1 24.4 4.4 22 12.6 SW 13 17 7 9 1019.4 - 0.0
09/07:20pm 28.5 24.8 4.6 21 12.8 WSW 13 15 7 8 1019.5 - 0.0
09/07:10pm 28.6 24.6 4.7 22 12.8 WSW 15 17 8 9 1019.4 - 0.0
09/07:00pm 28.4 23.9 4.4 21 12.8 SW 17 19 9 10 1019.2 - 0.0
09/06:50pm 28.4 23.9 4.4 21 12.8 SW 17 19 9 10 1019.2 - 0.0
09/06:40pm 28.4 23.9 4.0 21 12.9 SW 17 20 9 11 1019.0 - 0.0
09/06:30pm 28.5 24.0 4.3 21 12.9 SW 17 20 9 11 1018.8 - 0.0
09/06:20pm 28.7 23.8 4.0 20 13.1 WSW 19 26 10 14 1018.7 - 0.0
09/06:10pm 29.7 25.3 4.6 20 13.5 WSW 17 22 9 12 1018.8 - 0.0
09/06:00pm 31.0 26.9 4.6 19 14.3 WSW 15 26 8 14 1018.6 - 0.0
09/05:50pm 31.1 27.0 4.5 18 14.4 WSW 15 19 8 10 1018.7 - 0.0
09/05:40pm 30.4 26.3 4.2 19 14.0 WSW 15 20 8 11 1018.9 - 0.0
09/05:30pm 30.6 25.7 4.2 18 14.2 WSW 19 24 10 13 1018.8 - 0.0
09/05:20pm 31.5 26.4 4.1 17 14.7 WSW 20 26 11 14 1018.7 - 0.0
09/05:10pm 32.0 27.6 4.7 18 14.9 WSW 17 24 9 13 1018.8 - 0.0
09/05:00pm 32.1 27.1 4.5 17 15.0 WSW 20 26 11 14 1018.8 - 0.0
09/04:50pm 31.9 26.6 5.0 18 14.7 SW 22 28 12 15 1018.8 - 0.0
09/04:40pm 32.1 26.0 4.7 18 14.9 SW 26 30 14 16 1018.8 - 0.0
09/04:30pm 32.7 28.2 4.2 16 15.5 SW 17 22 9 12 1019.0 - 0.0
09/04:20pm 33.1 28.8 3.2 15 16.0 WSW 15 22 8 12 1019.0 - 0.0
09/04:10pm 32.7 28.1 3.8 16 15.6 WSW 17 22 9 12 1019.1 - 0.0
09/04:00pm 32.6 27.5 3.2 15 15.7 WSW 19 28 10 15 1019.3 - 0.0
09/03:50pm 32.5 27.4 2.9 15 15.7 WSW 19 26 10 14 1019.4 - 0.0
09/03:40pm 33.0 28.1 1.8 14 16.3 WSW 17 28 9 15 1019.5 - 0.0
09/03:30pm 32.9 27.7 2.5 14 16.1 WSW 19 28 10 15 1019.6 - 0.0
09/03:20pm 32.6 26.5 2.7 15 15.8 SW 24 32 13 17 1019.6 - 0.0
09/03:10pm 32.7 27.1 3.5 16 15.7 SW 22 30 12 16 1019.7 - 0.0
09/03:00pm 32.8 27.8 4.5 17 15.4 SW 20 28 11 15 1019.7 - 0.0
09/02:50pm 33.0 28.4 5.4 18 15.3 SW 19 26 10 14 1019.8 - 0.0
09/02:40pm 32.5 27.1 4.6 17 15.2 WSW 22 26 12 14 1019.9 - 0.0
09/02:30pm 32.5 28.1 4.7 17 15.2 WSW 17 24 9 13 1019.9 - 0.0
09/02:20pm 32.5 28.1 6.7 20 14.5 SW 19 28 10 15 1020.2 - 0.0
09/02:10pm 32.1 27.1 6.4 20 14.4 SW 22 30 12 16 1020.1 - 0.0
09/02:00pm 31.8 26.6 5.5 19 14.5 SW 22 32 12 17 1020.3 - 0.0
09/01:50pm 32.2 28.3 5.2 18 14.8 SW 15 20 8 11 1020.6 - 0.0
09/01:40pm 31.9 27.2 5.3 19 14.6 SW 19 26 10 14 1020.7 - 0.0
09/01:30pm 32.0 28.9 5.6 19 14.6 W 11 19 6 10 1021.0 - 0.0
09/01:20pm 31.6 27.5 6.4 20 14.1 WNW 17 24 9 13 1021.1 - 0.0
09/01:10pm 31.5 28.2 6.5 21 14.0 WNW 13 22 7 12 1021.3 - 0.0
09/01:00pm 31.6 28.5 7.2 21 13.8 NW 13 17 7 9 1021.2 - 0.0
09/12:50pm 31.6 28.9 7.2 21 13.8 NW 11 17 6 9 1021.5 - 0.0
09/12:40pm 30.7 28.4 7.3 23 13.2 WNW 9 13 5 7 1021.6 - 0.0
09/12:30pm 30.7 27.0 8.1 24 12.9 NNW 17 24 9 13 1021.8 - 0.0
09/12:20pm 29.2 27.2 8.6 27 11.8 N 9 13 5 7 1021.9 - 0.0
09/12:10pm 28.7 25.7 9.1 29 11.3 N 15 22 8 12 1022.0 - 0.0
09/12:00pm 27.4 24.8 12.1 38 9.2 N 17 22 9 12 1022.2 - 0.0
09/11:50am 26.8 24.8 11.6 38 9.0 N 13 17 7 9 1022.4 - 0.0
09/11:40am 26.7 25.2 11.9 39 8.8 N 11 17 6 9 1022.4 - 0.0
09/11:30am 25.9 25.3 12.3 42 8.1 NNE 7 15 4 8 1022.4 - 0.0
09/11:20am 25.7 24.9 13.0 45 7.7 NNE 9 11 5 6 1022.5 - 0.0
09/11:10am 25.0 24.2 12.9 47 7.3 NNE 9 13 5 7 1022.7 - 0.0
09/11:00am 24.5 23.3 12.9 48 7.0 N 11 15 6 8 1022.7 - 0.0
09/10:50am 24.6 23.7 12.6 47 7.2 N 9 15 5 8 1022.8 - 0.0
09/10:40am 23.2 22.7 12.7 51 6.3 N 7 9 4 5 1022.9 - 0.0
09/10:30am 22.6 21.8 12.8 54 5.8 NNE 9 15 5 8 1023.1 - 0.0
09/10:20am 22.8 22.0 12.9 53 5.9 N 9 13 5 7 1023.1 - 0.0
09/10:10am 23.1 22.3 12.8 52 6.1 NNW 9 11 5 6 1023.2 - 0.0
09/10:00am 22.7 21.9 12.9 54 5.8 NNW 9 11 5 6 1023.2 - 0.0
09/09:50am 22.1 21.5 12.4 54 5.7 N 7 11 4 6 1023.3 - 0.0
09/09:40am 21.4 21.1 12.8 58 5.1 N 6 7 3 4 1023.4 - 0.0
09/09:30am 20.5 20.5 12.3 59 4.8 N 4 7 2 4 1023.5 - 0.0
09/09:20am 20.0 20.0 12.3 61 4.5 N 4 6 2 3 1023.6 - 0.0
09/09:10am 19.6 19.6 12.3 62 4.3 NNW 4 7 2 4 1023.7 - 0.0
09/09:00am 19.1 19.1 12.3 64 4.0 NNE 4 6 2 3 1023.8 - 0.0
09/08:50am 18.8 18.3 12.2 65 3.8 NW 6 6 3 3 1023.9 - 0.0
09/08:40am 18.6 19.0 12.6 68 3.5 NW 2 7 1 4 1024.0 - 0.0
09/08:30am 18.3 18.7 12.4 68 3.4 NNW 2 6 1 3 1024.1 - 0.0
09/08:20am 18.0 17.9 12.0 68 3.5 NW 4 7 2 4 1024.2 - 0.0
09/08:10am 17.0 17.2 11.8 71 3.0 N 2 2 1 1 1024.2 - 0.0
09/08:00am 16.1 16.3 11.9 76 2.4 W 2 6 1 3 1024.2 - 0.0
09/07:50am 16.0 16.2 11.8 76 2.4 SW 2 6 1 3 1024.2 - 0.0
09/07:40am 15.5 16.1 11.8 78 2.1 CALM 0 4 0 2 1024.1 - 0.0
09/07:30am 15.1 15.3 11.8 81 1.9 NW 2 4 1 2 1024.1 - 0.0
09/07:20am 15.0 15.2 11.8 81 1.8 W 2 4 1 2 1024.0 - 0.0
09/07:10am 15.0 15.2 11.8 81 1.8 SW 2 6 1 3 1023.9 - 0.0
09/07:00am 14.9 14.3 11.7 81 1.8 SSW 6 7 3 4 1023.8 - 0.0
09/06:50am 14.7 14.1 11.6 82 1.7 SW 6 7 3 4 1023.9 - 0.0
09/06:40am 14.6 14.0 11.6 82 1.7 SW 6 7 3 4 1023.8 - 0.0
09/06:30am 14.6 14.0 11.6 82 1.7 SW 6 9 3 5 1023.8 - 0.0
09/06:20am 14.6 14.4 11.7 83 1.6 SSW 4 7 2 4 1023.8 - 0.0
09/06:10am 14.6 14.4 11.7 83 1.6 SSW 4 4 2 2 1023.8 - 0.0
09/06:00am 14.5 14.7 11.7 83 1.6 SW 2 4 1 2 1023.8 - 0.0
09/05:50am 14.5 14.3 11.7 83 1.6 SW 4 6 2 3 1023.7 - 0.0
09/05:40am 14.5 13.9 11.7 83 1.6 SW 6 7 3 4 1023.6 - 0.0
09/05:30am 14.6 15.2 11.9 84 1.5 CALM 0 4 0 2 1023.5 - 0.0
09/05:20am 14.6 14.8 11.8 83 1.6 NW 2 6 1 3 1023.3 - 0.0
09/05:10am 14.6 14.8 11.9 84 1.5 S 2 4 1 2 1023.3 - 0.0
09/05:00am 14.6 15.2 11.9 84 1.5 CALM 0 2 0 1 1023.3 - 0.0
09/04:50am 14.6 15.2 11.9 84 1.5 CALM 0 0 0 0 1023.2 - 0.0
09/04:40am 14.7 15.3 11.9 83 1.6 CALM 0 2 0 1 1023.2 - 0.0
09/04:30am 14.7 15.3 11.9 83 1.6 CALM 0 4 0 2 1023.2 - 0.0
09/04:20am 14.7 15.3 11.9 83 1.6 CALM 0 2 0 1 1023.2 - 0.0
09/04:10am 14.7 15.3 12.0 84 1.5 CALM 0 0 0 0 1023.2 - 0.0
09/04:00am 14.7 14.9 11.9 83 1.6 WSW 2 6 1 3 1023.2 - 0.0
09/03:50am 14.8 15.0 11.9 83 1.6 ENE 2 6 1 3 1023.3 - 0.0
09/03:40am 14.7 14.9 11.8 83 1.6 SSE 2 4 1 2 1023.4 - 0.0
09/03:30am 14.8 15.0 11.8 82 1.7 S 2 4 1 2 1023.4 - 0.0
09/03:20am 14.8 15.0 11.9 83 1.6 ESE 2 4 1 2 1023.4 - 0.0
09/03:10am 14.8 14.6 11.9 83 1.6 NNE 4 6 2 3 1023.5 - 0.0
09/03:00am 14.8 15.0 12.0 83 1.6 NNW 2 4 1 2 1023.5 - 0.0
09/02:50am 14.8 14.6 11.9 83 1.6 NE 4 6 2 3 1023.6 - 0.0
09/02:40am 14.8 14.3 12.2 84 1.5 NE 6 7 3 4 1023.8 - 0.0
09/02:30am 14.8 14.3 12.0 83 1.6 NE 6 6 3 3 1023.8 - 0.0
09/02:20am 14.8 14.3 12.1 84 1.5 NE 6 7 3 4 1023.9 - 0.0
09/02:10am 14.8 14.1 12.1 84 1.5 ENE 7 9 4 5 1024.0 - 0.0
09/02:00am 14.8 14.3 12.1 84 1.5 ENE 6 7 3 4 1024.0 - 0.0
09/01:50am 14.8 14.3 12.1 84 1.5 ENE 6 9 3 5 1024.0 - 0.0
09/01:40am 14.8 14.2 12.2 84 1.5 NE 7 11 4 6 1023.9 - 0.0
09/01:30am 14.8 14.2 12.2 84 1.5 NE 7 7 4 4 1024.0 - 0.0
09/01:20am 14.8 14.2 12.2 84 1.5 NNE 7 9 4 5 1024.1 - 0.0
09/01:10am 14.8 14.3 12.2 84 1.5 NNE 6 9 3 5 1024.1 - 0.0
09/01:00am 14.9 14.8 12.2 84 1.5 NE 4 6 2 3 1024.2 - 0.0
09/12:50am 14.9 14.8 12.2 84 1.5 NNE 4 6 2 3 1024.3 - 0.0
09/12:40am 14.9 14.8 12.2 84 1.5 NNE 4 6 2 3 1024.4 - 0.0
09/12:30am 14.9 14.5 12.3 84 1.5 NE 6 7 3 4 1024.5 - 0.0
09/12:20am 14.9 14.5 12.3 84 1.5 NNE 6 6 3 3 1024.6 - 0.0
09/12:10am 15.0 14.4 12.3 84 1.5 NNE 7 9 4 5 1024.6 - 0.0
09/12:00am 15.0 14.6 12.3 84 1.5 NNE 6 7 3 4 1024.7 - 0.0
 
Date/Time
EDT
Temp
°C
App
Temp
°C
Dew
Point
°C
Rel
Hum
%
Delta-T
°C
Wind Press
QNH
hPa
Press
MSL
hPa
Rain since
9am
mm
Dir  Spd
km/h
Gust
km/h
Spd
kts
Gust
kts
08/11:50pm 15.0 14.6 12.3 84 1.5 NE 6 7 3 4 1024.7 - 0.0
08/11:40pm 15.0 14.6 12.3 84 1.5 NE 6 6 3 3 1024.8 - 0.0
08/11:30pm 15.0 14.6 12.3 84 1.5 NNE 6 7 3 4 1024.8 - 0.0
08/11:20pm 15.0 14.6 12.3 84 1.5 NNE 6 9 3 5 1024.8 - 0.0
08/11:10pm 15.0 14.6 12.3 84 1.5 ENE 6 7 3 4 1024.8 - 0.0
08/11:00pm 15.0 14.6 12.3 84 1.5 NE 6 7 3 4 1024.9 - 0.0
08/10:50pm 15.0 14.4 12.2 83 1.6 ENE 7 7 4 4 1024.9 - 0.0
08/10:40pm 15.0 14.4 12.2 83 1.6 ENE 7 7 4 4 1024.9 - 0.0
08/10:30pm 15.0 14.3 12.1 83 1.6 ENE 7 7 4 4 1024.8 - 0.0
08/10:20pm 14.8 13.7 12.1 84 1.5 ENE 9 11 5 6 1024.8 - 0.0
08/10:10pm 14.8 13.4 12.1 84 1.5 ENE 11 15 6 8 1024.6 - 0.0
08/10:00pm 15.0 13.6 12.1 83 1.6 E 11 13 6 7 1024.4 - 0.0
08/09:50pm 15.2 14.1 12.0 81 1.8 ENE 9 13 5 7 1024.2 - 0.0
08/09:40pm 15.5 14.4 11.9 79 2.0 ENE 9 11 5 6 1024.1 - 0.0
08/09:30pm 15.8 14.3 12.0 78 2.2 ENE 11 13 6 7 1024.0 - 0.0
08/09:20pm 16.1 15.0 12.0 76 2.3 NNE 9 11 5 6 1023.9 - 0.0
08/09:10pm 16.4 15.0 12.1 76 2.5 NE 11 11 6 6 1023.7 - 0.0
08/09:00pm 16.8 15.0 12.1 74 2.7 ENE 13 15 7 8 1023.5 - 0.0
08/08:50pm 17.2 15.4 12.1 72 2.9 NE 13 15 7 8 1023.4 - 0.0
08/08:40pm 17.5 16.1 12.1 70 3.1 ENE 11 15 6 8 1023.3 - 0.0
08/08:30pm 18.0 16.5 12.0 68 3.5 ENE 11 13 6 7 1023.1 - 0.0
08/08:20pm 18.5 16.7 12.1 66 3.7 NE 13 15 7 8 1022.8 - 0.0
08/08:10pm 19.0 16.4 12.0 64 4.0 NNE 17 19 9 10 1022.5 - 0.0
08/08:00pm 19.3 16.7 11.9 62 4.3 NNE 17 19 9 10 1022.3 - 0.0
08/07:50pm 19.8 17.2 12.0 60 4.5 NE 17 20 9 11 1022.0 - 0.0
08/07:40pm 20.3 17.7 11.9 58 4.9 NE 17 20 9 11 1021.7 - 0.0
08/07:30pm 20.7 17.7 11.8 56 5.2 NNE 19 22 10 12 1021.5 - 0.0
08/07:20pm 21.1 17.9 11.8 55 5.4 NNE 20 22 11 12 1021.1 - 0.0
08/07:10pm 21.8 19.1 11.8 53 5.8 NE 17 20 9 11 1020.8 - 0.0
08/07:00pm 22.3 20.0 11.7 51 6.2 NE 15 22 8 12 1020.7 - 0.0
08/06:50pm 22.7 19.3 11.4 49 6.6 NE 20 22 11 12 1020.4 - 0.0
08/06:40pm 23.3 19.9 11.3 46 7.0 NNE 20 28 11 15 1020.1 - 0.0
08/06:30pm 24.1 20.5 10.7 43 7.8 NNE 20 24 11 13 1019.9 - 0.0
08/06:20pm 24.4 19.6 10.2 40 8.2 NNE 26 30 14 16 1019.6 - 0.0
08/06:10pm 25.1 20.6 10.2 39 8.6 NE 24 28 13 15 1019.5 - 0.0
08/06:00pm 27.4 23.8 9.7 33 10.2 N 19 26 10 14 1019.3 - 0.0
08/05:50pm 28.0 23.9 6.2 25 11.9 N 17 22 9 12 1019.3 - 0.0
08/05:40pm 28.6 24.1 6.1 24 12.3 N 19 24 10 13 1019.2 - 0.0
08/05:30pm 28.2 23.8 6.4 25 12.0 N 19 22 10 12 1019.2 - 0.0
08/05:20pm 28.9 24.8 6.0 23 12.5 N 17 24 9 13 1019.2 - 0.0
08/05:10pm 27.8 23.3 6.1 25 11.8 N 19 22 10 12 1019.2 - 0.0
08/05:00pm 29.2 24.6 6.7 24 12.5 N 20 24 11 13 1019.3 - 0.0
08/04:50pm 28.3 23.9 6.5 25 12.0 N 19 28 10 15 1019.3 - 0.0
08/04:40pm 28.5 24.2 6.8 25 12.0 N 19 26 10 14 1019.3 - 0.0
08/04:30pm 29.0 25.0 6.8 24 12.3 NNW 17 22 9 12 1019.4 - 0.0
08/04:20pm 28.0 23.4 6.7 26 11.7 N 20 30 11 16 1019.4 - 0.0
08/04:10pm 28.6 24.3 7.2 26 11.9 N 19 22 10 12 1019.4 - 0.0
08/04:00pm 29.5 25.6 7.2 24 12.5 N 17 22 9 12 1019.5 - 0.0
08/03:50pm 29.0 24.8 7.5 26 12.1 N 19 22 10 12 1019.6 - 0.0
08/03:40pm 27.7 23.4 7.1 27 11.4 N 19 28 10 15 1019.6 - 0.0
08/03:30pm 27.9 24.8 7.4 27 11.4 N 13 22 7 12 1019.7 - 0.0
08/03:20pm 27.6 23.2 6.6 26 11.5 N 19 22 10 12 1019.8 - 0.0
08/03:10pm 28.6 24.8 7.6 26 11.8 N 17 24 9 13 1019.8 - 0.0
08/03:00pm 26.5 23.1 7.6 30 10.5 NNE 15 20 8 11 1019.8 - 0.0
08/02:50pm 26.7 22.5 7.4 29 10.7 N 19 22 10 12 1019.9 - 0.0
08/02:40pm 27.3 23.0 7.9 29 10.9 N 20 26 11 14 1020.1 - 0.0
08/02:30pm 26.6 23.1 7.3 29 10.7 N 15 24 8 13 1020.0 - 0.0
08/02:20pm 25.9 22.3 6.9 29 10.4 NNE 15 24 8 13 1020.1 - 0.0
08/02:10pm 25.3 21.5 7.6 32 9.8 NNE 17 20 9 11 1020.3 - 0.0
08/02:00pm 26.6 23.2 7.8 30 10.5 N 15 19 8 10 1020.4 - 0.0
08/01:50pm 25.8 22.4 7.6 31 10.1 NNE 15 30 8 16 1020.5 - 0.0
08/01:40pm 25.7 21.8 7.0 30 10.2 N 17 22 9 12 1020.5 - 0.0
08/01:30pm 25.1 21.6 7.4 32 9.7 NE 15 20 8 11 1020.6 - 0.0
08/01:20pm 25.2 22.4 7.1 31 9.9 N 11 19 6 10 1020.7 - 0.0
08/01:10pm 24.7 21.8 8.3 35 9.1 NNW 13 19 7 10 1020.8 - 0.0
08/01:00pm 24.1 21.1 7.9 35 8.9 NNE 13 19 7 10 1021.0 - 0.0
08/12:50pm 23.6 20.9 8.8 39 8.3 NNE 13 17 7 9 1021.0 - 0.0
08/12:40pm 24.3 20.8 8.8 37 8.7 N 17 20 9 11 1021.0 - 0.0
08/12:30pm 25.3 23.1 9.2 36 9.1 N 11 15 6 8 1021.1 - 0.0
08/12:20pm 23.9 21.6 8.9 38 8.4 N 11 20 6 11 1021.1 - 0.0
08/12:10pm 23.3 19.9 9.1 40 8.0 NNE 17 20 9 11 1021.1 - 0.0
08/12:00pm 23.1 20.5 9.5 42 7.7 NNE 13 20 7 11 1021.4 - 0.0
08/11:50am 23.1 20.9 9.5 42 7.7 N 11 15 6 8 1021.4 - 0.0
08/11:40am 23.2 20.9 9.1 40 7.9 NNE 11 17 6 9 1021.5 - 0.0
08/11:30am 22.4 19.8 9.3 43 7.3 N 13 20 7 11 1021.6 - 0.0
08/11:20am 22.3 19.4 9.7 44 7.1 NNE 15 20 8 11 1021.6 - 0.0
08/11:10am 22.7 21.3 9.5 43 7.4 N 7 11 4 6 1021.6 - 0.0
08/11:00am 21.3 19.4 9.0 45 6.8 NNE 9 15 5 8 1021.7 - 0.0
08/10:50am 20.6 18.2 8.8 46 6.5 NNE 11 13 6 7 1021.8 - 0.0
08/10:40am 21.0 19.4 8.9 46 6.7 NNE 7 13 4 7 1021.8 - 0.0
08/10:30am 20.0 17.7 9.0 49 6.1 NNE 11 19 6 10 1021.7 - 0.0
08/10:20am 20.3 19.2 9.8 51 5.9 NE 6 7 3 4 1021.7 - 0.0
08/10:10am 19.4 17.7 9.9 54 5.3 NE 9 13 5 7 1021.7 - 0.0
08/10:00am 20.0 18.4 10.2 53 5.5 N 9 11 5 6 1021.6 - 0.0
08/09:50am 20.5 19.2 10.1 51 5.9 NNW 7 9 4 5 1021.7 - 0.0
08/09:40am 18.9 17.5 9.7 55 5.1 N 7 7 4 4 1021.6 - 0.0
08/09:30am 18.4 16.8 10.3 59 4.5 N 9 13 5 7 1021.6 - 0.0
08/09:20am 18.2 16.5 10.0 58 4.6 N 9 13 5 7 1021.6 - 0.0
08/09:10am 18.0 16.9 9.9 59 4.5 NNW 6 9 3 5 1021.6 - 0.0
08/09:00am 16.5 15.4 10.0 65 3.6 NW 6 7 3 4 1021.6 - 0.0
08/08:50am 15.7 14.9 9.8 68 3.2 NNW 4 7 2 4 1021.6 - 0.0
08/08:40am 15.1 14.0 9.9 71 2.8 NW 6 7 3 4 1021.6 - 0.0
08/08:30am 15.3 14.3 10.2 71 2.8 NW 6 7 3 4 1021.6 - 0.0
08/08:20am 15.3 14.7 10.4 72 2.7 NW 4 6 2 3 1021.5 - 0.0
08/08:10am 15.5 14.6 10.6 72 2.7 NNW 6 9 3 5 1021.5 - 0.0
08/08:00am 15.3 14.4 10.5 73 2.6 N 6 9 3 5 1021.5 - 0.0
08/07:50am 14.9 13.9 10.4 74 2.5 N 6 7 3 4 1021.4 - 0.0
08/07:40am 14.1 13.4 10.2 77 2.1 N 4 6 2 3 1021.5 - 0.0
08/07:30am 13.7 13.0 10.2 79 1.9 N 4 7 2 4 1021.5 - 0.0
08/07:20am 13.4 12.2 10.4 82 1.6 N 7 7 4 4 1021.4 - 0.0
08/07:10am 13.4 12.2 10.2 81 1.7 N 7 9 4 5 1021.3 - 0.0
08/07:00am 13.3 12.3 10.4 82 1.6 N 6 9 3 5 1021.1 - 0.0
08/06:50am 13.1 12.1 10.4 84 1.5 N 6 6 3 3 1021.0 - 0.0
08/06:40am 12.8 12.3 10.6 86 1.2 NNE 4 7 2 4 1020.9 - 0.0
08/06:30am 12.6 11.7 10.6 88 1.1 NE 6 6 3 3 1020.9 - 0.0
08/06:20am 12.4 11.9 10.6 89 1.0 ENE 4 6 2 3 1020.9 - 0.0
08/06:10am 12.3 11.8 10.6 89 0.9 NE 4 6 2 3 1020.7 - 0.0
08/06:00am 12.4 11.5 10.7 89 0.9 NE 6 7 3 4 1020.6 - 0.0
08/05:50am 12.5 11.6 10.6 88 1.0 N 6 6 3 3 1020.5 - 0.0
08/05:40am 12.6 12.1 10.6 88 1.1 NNE 4 4 2 2 1020.4 - 0.0
08/05:30am 12.5 12.3 10.6 88 1.0 NE 2 4 1 2 1020.2 - 0.0
08/05:20am 12.5 11.6 10.6 88 1.0 NE 6 7 3 4 1020.0 - 0.0
08/05:10am 12.5 11.6 10.6 88 1.0 NE 6 7 3 4 1019.9 - 0.0
08/05:00am 12.5 11.6 10.7 89 1.0 NE 6 7 3 4 1019.8 - 0.0
08/04:50am 12.5 11.6 10.7 89 1.0 NE 6 6 3 3 1019.7 - 0.0
08/04:40am 12.6 11.7 10.8 89 1.0 NNE 6 7 3 4 1019.5 - 0.0
08/04:30am 12.8 11.9 10.8 88 1.1 NNE 6 7 3 4 1019.5 - 0.0
08/04:20am 13.0 11.9 10.8 86 1.2 NNE 7 7 4 4 1019.4 - 0.0
08/04:10am 13.1 12.0 10.8 86 1.3 NE 7 9 4 5 1019.4 - 0.0
08/04:00am 13.2 12.4 11.0 86 1.2 N 6 7 3 4 1019.3 - 0.0
08/03:50am 13.2 12.2 11.0 86 1.2 NNE 7 7 4 4 1019.2 - 0.0
08/03:40am 13.2 12.2 11.0 86 1.2 NNE 7 9 4 5 1019.3 - 0.0
08/03:30am 13.2 12.2 11.0 86 1.2 NNE 7 7 4 4 1019.3 - 0.0
08/03:20am 13.2 11.8 10.9 86 1.3 NNE 9 11 5 6 1019.4 - 0.0
08/03:10am 13.2 12.4 11.0 86 1.2 NNE 6 7 3 4 1019.4 - 0.0
08/03:00am 13.1 12.3 11.1 88 1.1 N 6 6 3 3 1019.4 - 0.0
08/02:50am 13.2 13.2 11.0 86 1.2 N 2 4 1 2 1019.4 - 0.0
08/02:40am 13.3 12.9 11.0 86 1.3 NNE 4 6 2 3 1019.6 - 0.0
08/02:30am 13.4 12.4 11.0 85 1.3 NNE 7 9 4 5 1019.6 - 0.0
08/02:20am 13.4 13.0 11.0 85 1.3 N 4 7 2 4 1019.7 - 0.0
08/02:10am 13.4 12.4 11.1 86 1.3 NNE 7 11 4 6 1019.7 - 0.0
08/02:00am 13.5 12.2 11.2 86 1.3 NNE 9 11 5 6 1019.6 - 0.0
08/01:50am 13.5 12.6 11.2 86 1.3 NNE 7 9 4 5 1019.7 - 0.0
08/01:40am 13.5 12.7 11.1 85 1.3 NNE 6 7 3 4 1019.7 - 0.0
08/01:30am 13.5 12.7 11.2 86 1.3 NNE 6 7 3 4 1019.7 - 0.0
08/01:20am 13.5 12.5 11.1 85 1.3 NE 7 11 4 6 1019.7 - 0.0
08/01:10am 13.4 12.4 11.1 86 1.3 NNE 7 9 4 5 1019.7 - 0.0
08/01:00am 13.3 12.9 11.1 86 1.2 NNE 4 7 2 4 1019.9 - 0.0
08/12:50am 12.9 13.2 10.9 88 1.1 CALM 0 2 0 1 1019.8 - 0.0
08/12:40am 12.9 13.2 10.9 88 1.1 CALM 0 0 0 0 1019.8 - 0.0
08/12:30am 13.1 13.0 10.9 86 1.2 W 2 4 1 2 1019.7 - 0.0
08/12:20am 13.1 13.5 11.1 88 1.1 CALM 0 2 0 1 1019.8 - 0.0
08/12:10am 13.3 12.9 11.2 87 1.2 NE 4 6 2 3 1019.7 - 0.0
08/12:00am 13.5 12.6 11.2 86 1.3 ENE 7 11 4 6 1019.7 - 0.0
 
Date/Time
EDT
Temp
°C
App
Temp
°C
Dew
Point
°C
Rel
Hum
%
Delta-T
°C
Wind Press
QNH
hPa
Press
MSL
hPa
Rain since
9am
mm
Dir  Spd
km/h
Gust
km/h
Spd
kts
Gust
kts
07/11:50pm 13.6 11.5 11.2 85 1.3 ENE 13 17 7 9 1019.5 - 0.0
07/11:40pm 13.8 11.7 11.1 84 1.5 E 13 17 7 9 1019.5 - 0.0
07/11:30pm 14.0 11.9 11.0 82 1.7 ESE 13 15 7 8 1019.5 - 0.0
07/11:20pm 14.0 13.0 10.9 81 1.7 ESE 7 11 4 6 1019.3 - 0.0
07/11:10pm 14.2 13.7 10.8 80 1.9 NE 4 4 2 2 1019.2 - 0.0
07/11:00pm 14.4 13.5 10.8 79 2.0 NE 6 9 3 5 1019.2 - 0.0
07/10:50pm 14.7 13.7 10.9 78 2.1 ESE 7 9 4 5 1019.0 - 0.0
07/10:40pm 15.0 13.5 10.7 75 2.4 E 9 13 5 7 1018.9 - 0.0
07/10:30pm 15.2 12.5 10.3 72 2.7 E 15 17 8 9 1018.7 - 0.0
07/10:20pm 15.5 12.8 10.4 71 2.8 E 15 19 8 10 1018.5 - 0.0
07/10:10pm 15.9 13.2 10.2 69 3.1 E 15 19 8 10 1018.3 - 0.0
07/10:00pm 17.0 14.5 9.8 62 4.0 E 13 19 7 10 1018.2 - 0.0
07/09:50pm 17.6 14.6 1.0 32 7.7 SE 6 7 3 4 1017.9 - 0.0
07/09:40pm 17.8 13.9 1.0 32 7.8 SSW 11 13 6 7 1017.7 - 0.0
07/09:30pm 18.2 14.2 0.7 31 8.1 SW 11 15 6 8 1017.4 - 0.0
07/09:20pm 18.4 14.8 0.6 30 8.2 SSW 9 11 5 6 1017.4 - 0.0
07/09:10pm 19.1 16.4 0.6 29 8.6 SW 4 7 2 4 1017.4 - 0.0
07/09:00pm 19.5 16.2 0.4 27 8.9 SW 7 13 4 7 1017.2 - 0.0
07/08:50pm 19.8 15.0 0.3 27 9.1 SSW 15 19 8 10 1017.1 - 0.0
07/08:40pm 19.8 14.2 0.0 26 9.2 SW 19 22 10 12 1016.8 - 0.0
07/08:30pm 19.7 15.3 0.1 27 9.1 SW 13 17 7 9 1016.6 - 0.0
07/08:20pm 20.0 15.5 -0.2 26 9.3 SW 13 17 7 9 1016.5 - 0.0
07/08:10pm 20.5 16.4 -0.2 25 9.6 WSW 11 19 6 10 1016.3 - 0.0
07/08:00pm 20.8 15.9 -0.5 24 9.8 WSW 15 24 8 13 1016.2 - 0.0
07/07:50pm 21.3 16.8 -0.1 24 10.0 WSW 13 17 7 9 1016.0 - 0.0
07/07:40pm 22.6 17.0 0.2 22 10.6 WSW 19 22 10 12 1015.9 - 0.0
07/07:30pm 23.6 18.8 0.3 21 11.2 WSW 15 17 8 9 1015.7 - 0.0
07/07:20pm 24.0 18.8 0.2 21 11.4 WSW 17 22 9 12 1015.6 - 0.0
07/07:10pm 24.5 19.8 0.7 21 11.6 WSW 15 22 8 12 1015.4 - 0.0
07/07:00pm 24.8 19.7 0.5 20 11.8 WSW 17 24 9 13 1015.1 - 0.0
07/06:50pm 25.1 19.6 0.9 20 11.8 WSW 19 22 10 12 1015.1 - 0.0
07/06:40pm 25.6 20.9 1.0 20 12.1 WSW 15 26 8 14 1014.9 - 0.0

Latest Capital City Observations: Canberra | Sydney | Melbourne | Brisbane | Adelaide | Perth | Hobart | Darwin

Other formats

Comma delimited format used in spreadsheet applications
http://www.bom.gov.au/fwo/IDN60903/IDN60903.99762.axf

JavaScript Object Notation format (JSON) in row-major order
http://www.bom.gov.au/fwo/IDN60903/IDN60903.99762.json

Data quality

Most of these data are generated automatically and are frequently updated. Quality checks on data are not normally performed. It is possible for incorrect values to appear. Refer to information at About Latest Weather Observations and please check the disclaimer before using these data.